Ayr Alva Beach, Queensland

12:24 PM AEST on July 08, 2015 (GMT +1000)
East Ayr | | Change Station
CLOSE
Current Station
Personal Weather Station
Location: Ayr, QUEENSLAND
Elevation: 33 ft
Nearby Weather Stations

Elev 33 ft 19.56 °S, 147.41 °E | Updated 59 seconds ago

Partly Cloudy
Partly Cloudy
77.9 °F
Feels Like 79 °F
N
6.9
Wind Variable Wind from East
Gusts 10.7 mph

Today
High -- | Low -- °F
--% Chance of Precip.
Yesterday
High -- | Low -- °F
Precip. -- in
6:44 AM 5:45 PM
Waning Gibbous, 59% visible
Pressure 30.06 in
Visibility 6.2 miles
Clouds Few 3500 ft
Heat Index 79 °F
Dew Point 54 °F
Humidity 44%
Rainfall 0.00 in
Snow Depth Not available.
UV 7 out of 12
Pollen Not available.
Air Quality Not available.
Flu Activity Not available.
METAR YBTL 080200Z 09016KT 9999 FEW035 25/11 Q1018 NOSIG

More Conditions Fewer Conditions

Pressure 30.06 in
Visibility 6.2 miles
Clouds Few 3500 ft
Heat Index 79 °F
Dew Point 54 °F
Humidity 44%
Rainfall 0.00 in
Snow Depth Not available.
UV 7 out of 12
Pollen Not available.
Air Quality Not available.
Flu Activity Not available.
METAR YBTL 080200Z 09016KT 9999 FEW035 25/11 Q1018 NOSIG

More Conditions Fewer Conditions

10-Day Weather Forecast

×

Almanac

Astronomy

Jul. 08, 2015 Rise Set
Actual Time
Civil Twilight
Nautical Twilight
Astronomical Twilight
Moon
Length of Visible Light
Length of Day
Tomorrow will be .
, % of the Moon is Illuminated

Today's Extremes

Country Highs Country Lows

Community

WunderPhotos

Upload Photos

1,836,013 photos uploaded!

WunderBlogs® & News

Nearby

Air Quality

  Air Quality AQ Index Pollutant
Not available.

Snow Depth

Station Depth Elevation

Earthquake Activity

City Distance Mag. Time & Date
Minimum magnitude displayed is 2.5.

Coastal Water Temperatures

Place Temperature

Stations

Nearby Weather Stations

Station Location Temp. Windchill Dew Point Humidity Wind Precip. Elev Updated Type